sensor_id;sensor_type;location;lat;lon;timestamp;P1;durP1;ratioP1;P2;durP2;ratioP2
55031;SDS011;40928;51.076;7.950;2023-06-22T00:02:17;7.90;;;5.45;;
55031;SDS011;40928;51.076;7.950;2023-06-22T00:04:47;9.10;;;5.75;;
55031;SDS011;40928;51.076;7.950;2023-06-22T00:07:14;6.30;;;5.15;;
55031;SDS011;40928;51.076;7.950;2023-06-22T00:09:40;6.88;;;5.97;;
55031;SDS011;40928;51.076;7.950;2023-06-22T00:12:08;6.78;;;5.55;;
55031;SDS011;40928;51.076;7.950;2023-06-22T00:14:34;10.48;;;5.70;;
55031;SDS011;40928;51.076;7.950;2023-06-22T00:17:00;6.18;;;5.40;;
55031;SDS011;40928;51.076;7.950;2023-06-22T00:19:26;6.38;;;5.47;;
55031;SDS011;40928;51.076;7.950;2023-06-22T00:21:52;8.70;;;5.95;;
55031;SDS011;40928;51.076;7.950;2023-06-22T00:24:21;9.00;;;6.05;;
55031;SDS011;40928;51.076;7.950;2023-06-22T00:26:50;12.43;;;6.55;;
55031;SDS011;40928;51.076;7.950;2023-06-22T00:29:15;7.95;;;5.82;;
55031;SDS011;40928;51.076;7.950;2023-06-22T00:31:47;8.50;;;6.22;;
55031;SDS011;40928;51.076;7.950;2023-06-22T00:34:13;7.28;;;6.10;;
55031;SDS011;40928;51.076;7.950;2023-06-22T00:36:39;7.22;;;6.45;;
55031;SDS011;40928;51.076;7.950;2023-06-22T00:39:06;10.77;;;6.05;;
55031;SDS011;40928;51.076;7.950;2023-06-22T00:41:33;6.53;;;5.68;;
55031;SDS011;40928;51.076;7.950;2023-06-22T00:43:59;6.63;;;5.43;;
55031;SDS011;40928;51.076;7.950;2023-06-22T00:46:24;10.63;;;6.97;;
55031;SDS011;40928;51.076;7.950;2023-06-22T00:48:51;10.82;;;5.47;;
55031;SDS011;40928;51.076;7.950;2023-06-22T00:51:22;9.23;;;6.57;;
55031;SDS011;40928;51.076;7.950;2023-06-22T00:53:50;8.77;;;6.20;;
55031;SDS011;40928;51.076;7.950;2023-06-22T00:56:18;7.40;;;6.10;;
55031;SDS011;40928;51.076;7.950;2023-06-22T00:58:45;6.30;;;5.70;;
55031;SDS011;40928;51.076;7.950;2023-06-22T01:01:12;6.95;;;6.20;;
55031;SDS011;40928;51.076;7.950;2023-06-22T01:03:39;9.85;;;6.45;;
55031;SDS011;40928;51.076;7.950;2023-06-22T01:06:07;7.85;;;6.60;;
55031;SDS011;40928;51.076;7.950;2023-06-22T01:08:57;7.55;;;6.35;;
55031;SDS011;40928;51.076;7.950;2023-06-22T01:11:49;8.00;;;6.20;;
55031;SDS011;40928;51.076;7.950;2023-06-22T01:14:28;7.78;;;5.60;;
55031;SDS011;40928;51.076;7.950;2023-06-22T01:17:03;8.63;;;5.78;;
55031;SDS011;40928;51.076;7.950;2023-06-22T01:19:43;6.95;;;6.10;;
55031;SDS011;40928;51.076;7.950;2023-06-22T01:22:21;7.63;;;6.18;;
55031;SDS011;40928;51.076;7.950;2023-06-22T01:25:09;7.18;;;5.85;;
55031;SDS011;40928;51.076;7.950;2023-06-22T01:30:42;6.70;;;5.40;;
55031;SDS011;40928;51.076;7.950;2023-06-22T01:33:12;7.57;;;5.60;;
55031;SDS011;40928;51.076;7.950;2023-06-22T01:35:42;9.60;;;6.35;;
55031;SDS011;40928;51.076;7.950;2023-06-22T01:38:09;7.75;;;6.43;;
55031;SDS011;40928;51.076;7.950;2023-06-22T01:40:35;6.20;;;5.50;;
55031;SDS011;40928;51.076;7.950;2023-06-22T01:43:02;7.43;;;6.65;;
55031;SDS011;40928;51.076;7.950;2023-06-22T01:45:28;9.43;;;6.53;;
55031;SDS011;40928;51.076;7.950;2023-06-22T01:47:55;7.47;;;6.55;;
55031;SDS011;40928;51.076;7.950;2023-06-22T01:50:22;7.03;;;6.00;;
55031;SDS011;40928;51.076;7.950;2023-06-22T01:52:48;8.88;;;6.13;;
55031;SDS011;40928;51.076;7.950;2023-06-22T01:55:14;6.47;;;5.75;;
55031;SDS011;40928;51.076;7.950;2023-06-22T01:57:39;8.35;;;6.35;;
55031;SDS011;40928;51.076;7.950;2023-06-22T02:00:18;7.63;;;6.18;;
55031;SDS011;40928;51.076;7.950;2023-06-22T02:02:52;9.25;;;6.82;;
55031;SDS011;40928;51.076;7.950;2023-06-22T02:05:26;7.88;;;6.38;;
55031;SDS011;40928;51.076;7.950;2023-06-22T02:08:08;8.20;;;6.40;;
55031;SDS011;40928;51.076;7.950;2023-06-22T02:10:38;8.77;;;6.30;;
55031;SDS011;40928;51.076;7.950;2023-06-22T02:13:08;6.43;;;5.68;;
55031;SDS011;40928;51.076;7.950;2023-06-22T02:15:39;9.32;;;6.53;;
55031;SDS011;40928;51.076;7.950;2023-06-22T02:18:07;6.78;;;6.07;;
55031;SDS011;40928;51.076;7.950;2023-06-22T02:20:35;8.23;;;6.40;;
55031;SDS011;40928;51.076;7.950;2023-06-22T02:23:06;7.72;;;6.32;;
55031;SDS011;40928;51.076;7.950;2023-06-22T02:25:34;6.90;;;5.88;;
55031;SDS011;40928;51.076;7.950;2023-06-22T02:28:01;8.45;;;7.00;;
55031;SDS011;40928;51.076;7.950;2023-06-22T02:30:27;8.07;;;6.95;;
55031;SDS011;40928;51.076;7.950;2023-06-22T02:32:52;7.10;;;6.00;;
55031;SDS011;40928;51.076;7.950;2023-06-22T02:35:28;9.02;;;6.60;;
55031;SDS011;40928;51.076;7.950;2023-06-22T02:37:59;8.85;;;6.32;;
55031;SDS011;40928;51.076;7.950;2023-06-22T02:40:33;7.35;;;6.55;;
55031;SDS011;40928;51.076;7.950;2023-06-22T02:42:59;8.73;;;6.20;;
55031;SDS011;40928;51.076;7.950;2023-06-22T02:45:27;11.80;;;7.07;;
55031;SDS011;40928;51.076;7.950;2023-06-22T02:47:53;9.55;;;6.90;;
55031;SDS011;40928;51.076;7.950;2023-06-22T02:50:18;8.27;;;6.80;;
55031;SDS011;40928;51.076;7.950;2023-06-22T02:52:44;7.20;;;6.25;;
55031;SDS011;40928;51.076;7.950;2023-06-22T02:55:10;7.63;;;6.32;;
55031;SDS011;40928;51.076;7.950;2023-06-22T02:57:36;9.57;;;6.30;;
55031;SDS011;40928;51.076;7.950;2023-06-22T03:00:02;6.68;;;5.85;;
55031;SDS011;40928;51.076;7.950;2023-06-22T03:02:42;8.13;;;6.50;;
55031;SDS011;40928;51.076;7.950;2023-06-22T03:05:10;9.32;;;7.20;;
55031;SDS011;40928;51.076;7.950;2023-06-22T03:07:40;9.05;;;6.75;;
55031;SDS011;40928;51.076;7.950;2023-06-22T03:10:13;11.32;;;6.90;;
55031;SDS011;40928;51.076;7.950;2023-06-22T03:12:39;9.25;;;7.75;;
55031;SDS011;40928;51.076;7.950;2023-06-22T03:15:07;10.13;;;7.40;;
55031;SDS011;40928;51.076;7.950;2023-06-22T03:17:35;11.85;;;8.27;;
55031;SDS011;40928;51.076;7.950;2023-06-22T03:20:02;8.75;;;6.50;;
55031;SDS011;40928;51.076;7.950;2023-06-22T03:22:37;8.13;;;6.75;;
55031;SDS011;40928;51.076;7.950;2023-06-22T03:25:22;8.85;;;6.88;;
55031;SDS011;40928;51.076;7.950;2023-06-22T03:27:49;9.15;;;7.45;;
55031;SDS011;40928;51.076;7.950;2023-06-22T03:30:15;10.57;;;7.72;;
55031;SDS011;40928;51.076;7.950;2023-06-22T03:32:41;10.88;;;7.72;;
55031;SDS011;40928;51.076;7.950;2023-06-22T03:35:08;8.90;;;7.20;;
55031;SDS011;40928;51.076;7.950;2023-06-22T03:37:35;8.13;;;7.07;;
55031;SDS011;40928;51.076;7.950;2023-06-22T03:40:01;10.95;;;8.35;;
55031;SDS011;40928;51.076;7.950;2023-06-22T03:42:30;12.05;;;7.65;;
55031;SDS011;40928;51.076;7.950;2023-06-22T03:44:56;10.15;;;8.30;;
55031;SDS011;40928;51.076;7.950;2023-06-22T03:47:22;9.68;;;7.32;;
55031;SDS011;40928;51.076;7.950;2023-06-22T03:49:48;9.40;;;7.68;;
55031;SDS011;40928;51.076;7.950;2023-06-22T03:52:21;8.05;;;7.18;;
55031;SDS011;40928;51.076;7.950;2023-06-22T03:54:47;9.05;;;7.55;;
55031;SDS011;40928;51.076;7.950;2023-06-22T03:57:13;9.02;;;7.35;;
55031;SDS011;40928;51.076;7.950;2023-06-22T03:59:40;11.38;;;8.52;;
55031;SDS011;40928;51.076;7.950;2023-06-22T04:02:08;9.68;;;8.35;;
55031;SDS011;40928;51.076;7.950;2023-06-22T04:04:34;11.07;;;8.63;;
55031;SDS011;40928;51.076;7.950;2023-06-22T04:07:00;11.88;;;8.48;;
55031;SDS011;40928;51.076;7.950;2023-06-22T04:09:27;8.90;;;8.00;;
55031;SDS011;40928;51.076;7.950;2023-06-22T04:11:55;10.82;;;7.93;;
55031;SDS011;40928;51.076;7.950;2023-06-22T04:14:21;12.70;;;9.70;;
55031;SDS011;40928;51.076;7.950;2023-06-22T04:16:48;8.38;;;7.45;;
55031;SDS011;40928;51.076;7.950;2023-06-22T04:19:13;12.15;;;8.35;;
55031;SDS011;40928;51.076;7.950;2023-06-22T04:21:44;13.05;;;9.95;;
55031;SDS011;40928;51.076;7.950;2023-06-22T04:24:11;10.90;;;7.97;;
55031;SDS011;40928;51.076;7.950;2023-06-22T04:26:37;8.77;;;7.20;;
55031;SDS011;40928;51.076;7.950;2023-06-22T04:29:04;10.45;;;8.98;;
55031;SDS011;40928;51.076;7.950;2023-06-22T04:31:37;11.70;;;9.13;;
55031;SDS011;40928;51.076;7.950;2023-06-22T04:34:03;12.85;;;9.27;;
55031;SDS011;40928;51.076;7.950;2023-06-22T04:36:36;9.07;;;7.90;;
55031;SDS011;40928;51.076;7.950;2023-06-22T04:39:04;9.10;;;8.20;;
55031;SDS011;40928;51.076;7.950;2023-06-22T04:41:38;11.65;;;8.95;;
55031;SDS011;40928;51.076;7.950;2023-06-22T04:44:11;16.42;;;9.98;;
55031;SDS011;40928;51.076;7.950;2023-06-22T04:47:00;12.50;;;9.65;;
55031;SDS011;40928;51.076;7.950;2023-06-22T04:49:30;12.57;;;9.60;;
55031;SDS011;40928;51.076;7.950;2023-06-22T04:52:08;11.85;;;9.75;;
55031;SDS011;40928;51.076;7.950;2023-06-22T04:54:36;10.57;;;9.35;;
55031;SDS011;40928;51.076;7.950;2023-06-22T04:57:04;10.68;;;9.57;;
55031;SDS011;40928;51.076;7.950;2023-06-22T04:59:35;12.63;;;9.55;;
55031;SDS011;40928;51.076;7.950;2023-06-22T05:02:01;18.02;;;12.57;;
55031;SDS011;40928;51.076;7.950;2023-06-22T05:04:28;12.10;;;10.23;;
55031;SDS011;40928;51.076;7.950;2023-06-22T05:06:56;11.60;;;9.77;;
55031;SDS011;40928;51.076;7.950;2023-06-22T05:09:23;14.15;;;11.25;;
55031;SDS011;40928;51.076;7.950;2023-06-22T05:11:52;15.70;;;11.02;;
55031;SDS011;40928;51.076;7.950;2023-06-22T05:14:18;13.52;;;10.25;;
55031;SDS011;40928;51.076;7.950;2023-06-22T05:16:44;13.50;;;9.60;;
55031;SDS011;40928;51.076;7.950;2023-06-22T05:19:11;15.27;;;12.45;;
55031;SDS011;40928;51.076;7.950;2023-06-22T05:21:38;20.10;;;16.10;;
55031;SDS011;40928;51.076;7.950;2023-06-22T05:24:04;23.23;;;16.92;;
55031;SDS011;40928;51.076;7.950;2023-06-22T05:26:33;20.10;;;11.63;;
55031;SDS011;40928;51.076;7.950;2023-06-22T05:29:46;12.95;;;9.23;;
55031;SDS011;40928;51.076;7.950;2023-06-22T05:32:12;14.60;;;9.98;;
55031;SDS011;40928;51.076;7.950;2023-06-22T05:34:38;12.52;;;11.23;;
55031;SDS011;40928;51.076;7.950;2023-06-22T05:37:03;12.90;;;10.63;;
55031;SDS011;40928;51.076;7.950;2023-06-22T05:39:29;11.02;;;9.77;;
55031;SDS011;40928;51.076;7.950;2023-06-22T05:41:54;10.30;;;8.80;;
55031;SDS011;40928;51.076;7.950;2023-06-22T05:44:20;10.57;;;8.95;;
55031;SDS011;40928;51.076;7.950;2023-06-22T05:46:46;13.18;;;10.40;;
55031;SDS011;40928;51.076;7.950;2023-06-22T05:49:13;11.18;;;9.65;;
55031;SDS011;40928;51.076;7.950;2023-06-22T05:51:39;15.88;;;11.27;;
55031;SDS011;40928;51.076;7.950;2023-06-22T05:54:05;16.77;;;11.70;;
55031;SDS011;40928;51.076;7.950;2023-06-22T05:56:31;12.32;;;11.02;;
55031;SDS011;40928;51.076;7.950;2023-06-22T05:58:56;12.27;;;10.98;;
55031;SDS011;40928;51.076;7.950;2023-06-22T06:01:25;17.25;;;11.43;;
55031;SDS011;40928;51.076;7.950;2023-06-22T06:03:51;12.57;;;10.02;;
55031;SDS011;40928;51.076;7.950;2023-06-22T06:06:18;12.57;;;9.15;;
55031;SDS011;40928;51.076;7.950;2023-06-22T06:08:54;11.23;;;9.65;;
55031;SDS011;40928;51.076;7.950;2023-06-22T06:11:21;11.02;;;8.85;;
55031;SDS011;40928;51.076;7.950;2023-06-22T06:13:46;11.18;;;9.98;;
55031;SDS011;40928;51.076;7.950;2023-06-22T06:16:12;14.38;;;10.13;;
55031;SDS011;40928;51.076;7.950;2023-06-22T06:18:38;13.52;;;10.82;;
55031;SDS011;40928;51.076;7.950;2023-06-22T06:21:03;13.25;;;10.73;;
55031;SDS011;40928;51.076;7.950;2023-06-22T06:23:29;10.52;;;9.43;;
55031;SDS011;40928;51.076;7.950;2023-06-22T06:25:54;12.02;;;10.52;;
55031;SDS011;40928;51.076;7.950;2023-06-22T06:28:24;11.32;;;10.00;;
55031;SDS011;40928;51.076;7.950;2023-06-22T06:30:50;11.85;;;9.18;;
55031;SDS011;40928;51.076;7.950;2023-06-22T06:33:17;10.20;;;8.95;;
55031;SDS011;40928;51.076;7.950;2023-06-22T06:35:42;12.00;;;10.35;;
55031;SDS011;40928;51.076;7.950;2023-06-22T06:38:08;9.45;;;8.35;;
55031;SDS011;40928;51.076;7.950;2023-06-22T06:40:36;10.52;;;8.77;;
55031;SDS011;40928;51.076;7.950;2023-06-22T06:43:02;11.27;;;9.73;;
55031;SDS011;40928;51.076;7.950;2023-06-22T06:45:27;12.70;;;8.75;;
55031;SDS011;40928;51.076;7.950;2023-06-22T06:47:54;11.43;;;8.88;;
55031;SDS011;40928;51.076;7.950;2023-06-22T06:50:19;9.57;;;8.57;;
55031;SDS011;40928;51.076;7.950;2023-06-22T06:52:46;10.15;;;9.05;;
55031;SDS011;40928;51.076;7.950;2023-06-22T06:55:11;11.50;;;8.88;;
55031;SDS011;40928;51.076;7.950;2023-06-22T06:57:38;12.13;;;9.38;;
55031;SDS011;40928;51.076;7.950;2023-06-22T07:00:05;12.38;;;9.27;;
55031;SDS011;40928;51.076;7.950;2023-06-22T07:02:39;10.05;;;8.75;;
55031;SDS011;40928;51.076;7.950;2023-06-22T07:05:06;11.07;;;8.82;;
55031;SDS011;40928;51.076;7.950;2023-06-22T07:07:32;11.80;;;7.85;;
55031;SDS011;40928;51.076;7.950;2023-06-22T07:09:58;13.55;;;8.90;;
55031;SDS011;40928;51.076;7.950;2023-06-22T07:12:24;11.23;;;8.80;;
55031;SDS011;40928;51.076;7.950;2023-06-22T07:14:49;9.00;;;8.00;;
55031;SDS011;40928;51.076;7.950;2023-06-22T07:17:20;8.95;;;7.53;;
55031;SDS011;40928;51.076;7.950;2023-06-22T07:19:48;11.18;;;8.48;;
55031;SDS011;40928;51.076;7.950;2023-06-22T07:22:14;12.18;;;7.75;;
55031;SDS011;40928;51.076;7.950;2023-06-22T07:24:40;10.07;;;7.97;;
55031;SDS011;40928;51.076;7.950;2023-06-22T07:27:05;8.90;;;7.47;;
55031;SDS011;40928;51.076;7.950;2023-06-22T07:29:31;12.88;;;7.35;;
55031;SDS011;40928;51.076;7.950;2023-06-22T07:31:58;8.20;;;7.28;;
55031;SDS011;40928;51.076;7.950;2023-06-22T07:34:26;10.45;;;8.30;;
55031;SDS011;40928;51.076;7.950;2023-06-22T07:36:57;8.38;;;7.47;;
55031;SDS011;40928;51.076;7.950;2023-06-22T07:39:22;9.40;;;8.40;;
55031;SDS011;40928;51.076;7.950;2023-06-22T07:41:51;8.35;;;7.45;;
55031;SDS011;40928;51.076;7.950;2023-06-22T07:44:16;11.57;;;8.13;;
55031;SDS011;40928;51.076;7.950;2023-06-22T07:46:45;10.77;;;8.05;;
55031;SDS011;40928;51.076;7.950;2023-06-22T07:49:12;9.07;;;7.30;;
55031;SDS011;40928;51.076;7.950;2023-06-22T07:51:37;8.70;;;7.68;;
55031;SDS011;40928;51.076;7.950;2023-06-22T07:54:03;9.63;;;8.25;;
55031;SDS011;40928;51.076;7.950;2023-06-22T07:56:31;9.35;;;7.50;;
55031;SDS011;40928;51.076;7.950;2023-06-22T07:59:01;13.57;;;7.43;;
55031;SDS011;40928;51.076;7.950;2023-06-22T08:01:30;7.25;;;6.53;;
55031;SDS011;40928;51.076;7.950;2023-06-22T08:04:01;7.70;;;6.90;;
55031;SDS011;40928;51.076;7.950;2023-06-22T08:06:35;8.15;;;6.90;;
55031;SDS011;40928;51.076;7.950;2023-06-22T08:09:04;9.07;;;6.88;;
55031;SDS011;40928;51.076;7.950;2023-06-22T08:11:35;8.60;;;7.00;;
55031;SDS011;40928;51.076;7.950;2023-06-22T08:14:01;10.20;;;7.10;;
55031;SDS011;40928;51.076;7.950;2023-06-22T08:16:26;7.78;;;6.38;;
55031;SDS011;40928;51.076;7.950;2023-06-22T08:18:55;8.43;;;6.78;;
55031;SDS011;40928;51.076;7.950;2023-06-22T08:21:21;9.05;;;6.55;;
55031;SDS011;40928;51.076;7.950;2023-06-22T08:23:47;10.23;;;7.15;;
55031;SDS011;40928;51.076;7.950;2023-06-22T08:26:14;8.63;;;6.95;;
55031;SDS011;40928;51.076;7.950;2023-06-22T08:28:42;8.10;;;7.00;;
55031;SDS011;40928;51.076;7.950;2023-06-22T08:31:07;8.82;;;6.90;;
55031;SDS011;40928;51.076;7.950;2023-06-22T08:33:33;10.10;;;7.28;;
55031;SDS011;40928;51.076;7.950;2023-06-22T08:35:59;8.82;;;7.50;;
55031;SDS011;40928;51.076;7.950;2023-06-22T08:38:25;9.13;;;6.70;;
55031;SDS011;40928;51.076;7.950;2023-06-22T08:40:54;9.02;;;7.13;;
55031;SDS011;40928;51.076;7.950;2023-06-22T08:43:22;8.88;;;7.00;;
55031;SDS011;40928;51.076;7.950;2023-06-22T08:45:47;7.72;;;6.05;;
55031;SDS011;40928;51.076;7.950;2023-06-22T08:48:13;8.23;;;6.60;;
55031;SDS011;40928;51.076;7.950;2023-06-22T08:50:41;9.35;;;6.65;;
55031;SDS011;40928;51.076;7.950;2023-06-22T08:53:07;8.10;;;6.55;;
55031;SDS011;40928;51.076;7.950;2023-06-22T08:55:34;7.88;;;6.43;;
55031;SDS011;40928;51.076;7.950;2023-06-22T08:58:05;7.45;;;6.40;;
55031;SDS011;40928;51.076;7.950;2023-06-22T09:00:31;8.45;;;7.10;;
55031;SDS011;40928;51.076;7.950;2023-06-22T09:03:03;8.63;;;7.57;;
55031;SDS011;40928;51.076;7.950;2023-06-22T09:05:29;8.65;;;6.43;;
55031;SDS011;40928;51.076;7.950;2023-06-22T09:07:56;10.32;;;6.50;;
55031;SDS011;40928;51.076;7.950;2023-06-22T09:10:22;9.30;;;6.90;;
55031;SDS011;40928;51.076;7.950;2023-06-22T09:12:47;8.35;;;6.72;;
55031;SDS011;40928;51.076;7.950;2023-06-22T09:15:13;8.35;;;6.20;;
55031;SDS011;40928;51.076;7.950;2023-06-22T09:17:40;8.82;;;6.55;;
55031;SDS011;40928;51.076;7.950;2023-06-22T09:20:06;7.72;;;6.50;;
55031;SDS011;40928;51.076;7.950;2023-06-22T09:22:32;8.40;;;7.15;;
55031;SDS011;40928;51.076;7.950;2023-06-22T09:24:59;7.70;;;6.45;;
55031;SDS011;40928;51.076;7.950;2023-06-22T09:27:25;7.93;;;5.57;;
55031;SDS011;40928;51.076;7.950;2023-06-22T09:29:52;7.10;;;5.97;;
55031;SDS011;40928;51.076;7.950;2023-06-22T09:32:17;8.52;;;6.43;;
55031;SDS011;40928;51.076;7.950;2023-06-22T09:34:43;8.27;;;6.95;;
55031;SDS011;40928;51.076;7.950;2023-06-22T09:37:08;8.52;;;6.38;;
55031;SDS011;40928;51.076;7.950;2023-06-22T09:39:34;8.95;;;6.80;;
55031;SDS011;40928;51.076;7.950;2023-06-22T09:41:59;7.97;;;6.13;;
55031;SDS011;40928;51.076;7.950;2023-06-22T09:44:25;7.47;;;6.18;;
55031;SDS011;40928;51.076;7.950;2023-06-22T09:46:51;10.02;;;6.72;;
55031;SDS011;40928;51.076;7.950;2023-06-22T09:49:16;7.82;;;6.00;;
55031;SDS011;40928;51.076;7.950;2023-06-22T09:51:42;7.97;;;6.05;;
55031;SDS011;40928;51.076;7.950;2023-06-22T09:54:07;13.70;;;6.38;;
55031;SDS011;40928;51.076;7.950;2023-06-22T09:56:33;7.20;;;6.22;;
55031;SDS011;40928;51.076;7.950;2023-06-22T09:58:59;6.70;;;5.75;;
55031;SDS011;40928;51.076;7.950;2023-06-22T10:01:25;8.10;;;5.80;;
55031;SDS011;40928;51.076;7.950;2023-06-22T10:03:55;7.60;;;5.45;;
55031;SDS011;40928;51.076;7.950;2023-06-22T10:06:21;7.95;;;5.90;;
55031;SDS011;40928;51.076;7.950;2023-06-22T10:08:53;8.25;;;5.40;;
55031;SDS011;40928;51.076;7.950;2023-06-22T10:11:19;6.88;;;5.70;;
55031;SDS011;40928;51.076;7.950;2023-06-22T10:13:44;6.15;;;5.22;;
55031;SDS011;40928;51.076;7.950;2023-06-22T10:16:10;6.60;;;4.70;;
55031;SDS011;40928;51.076;7.950;2023-06-22T10:18:36;6.50;;;5.50;;
55031;SDS011;40928;51.076;7.950;2023-06-22T10:21:05;7.03;;;5.25;;
55031;SDS011;40928;51.076;7.950;2023-06-22T10:23:30;7.68;;;4.85;;
55031;SDS011;40928;51.076;7.950;2023-06-22T10:25:56;6.88;;;5.78;;
55031;SDS011;40928;51.076;7.950;2023-06-22T10:28:26;6.97;;;5.57;;
55031;SDS011;40928;51.076;7.950;2023-06-22T10:30:52;9.70;;;5.25;;
55031;SDS011;40928;51.076;7.950;2023-06-22T10:33:17;6.20;;;5.32;;
55031;SDS011;40928;51.076;7.950;2023-06-22T10:35:48;8.75;;;5.85;;
55031;SDS011;40928;51.076;7.950;2023-06-22T10:38:14;7.30;;;5.38;;
55031;SDS011;40928;51.076;7.950;2023-06-22T10:40:42;6.47;;;5.78;;
55031;SDS011;40928;51.076;7.950;2023-06-22T10:43:09;6.93;;;5.90;;
55031;SDS011;40928;51.076;7.950;2023-06-22T10:45:43;6.80;;;5.70;;
55031;SDS011;40928;51.076;7.950;2023-06-22T10:48:09;7.55;;;5.57;;
55031;SDS011;40928;51.076;7.950;2023-06-22T10:50:35;7.40;;;5.97;;
55031;SDS011;40928;51.076;7.950;2023-06-22T10:53:02;9.68;;;6.07;;
55031;SDS011;40928;51.076;7.950;2023-06-22T10:55:27;7.45;;;6.55;;
55031;SDS011;40928;51.076;7.950;2023-06-22T10:57:56;7.72;;;5.95;;
55031;SDS011;40928;51.076;7.950;2023-06-22T11:00:22;7.38;;;5.90;;
55031;SDS011;40928;51.076;7.950;2023-06-22T11:02:47;6.72;;;5.85;;
55031;SDS011;40928;51.076;7.950;2023-06-22T11:05:13;7.95;;;6.25;;
55031;SDS011;40928;51.076;7.950;2023-06-22T11:07:42;9.90;;;6.35;;
55031;SDS011;40928;51.076;7.950;2023-06-22T11:10:12;8.27;;;6.30;;
55031;SDS011;40928;51.076;7.950;2023-06-22T11:12:38;8.15;;;5.85;;
55031;SDS011;40928;51.076;7.950;2023-06-22T11:15:06;8.30;;;5.53;;
55031;SDS011;40928;51.076;7.950;2023-06-22T11:17:32;8.27;;;5.43;;
55031;SDS011;40928;51.076;7.950;2023-06-22T11:19:58;12.45;;;6.45;;
55031;SDS011;40928;51.076;7.950;2023-06-22T11:22:25;9.35;;;6.80;;
55031;SDS011;40928;51.076;7.950;2023-06-22T11:24:51;11.90;;;7.30;;
55031;SDS011;40928;51.076;7.950;2023-06-22T11:27:25;8.95;;;6.53;;
55031;SDS011;40928;51.076;7.950;2023-06-22T11:29:51;10.30;;;7.25;;
55031;SDS011;40928;51.076;7.950;2023-06-22T11:32:18;12.00;;;7.07;;
55031;SDS011;40928;51.076;7.950;2023-06-22T11:34:46;8.27;;;6.13;;
55031;SDS011;40928;51.076;7.950;2023-06-22T11:37:12;8.32;;;6.22;;
55031;SDS011;40928;51.076;7.950;2023-06-22T11:39:38;10.48;;;6.65;;
55031;SDS011;40928;51.076;7.950;2023-06-22T11:42:03;9.05;;;7.25;;
55031;SDS011;40928;51.076;7.950;2023-06-22T11:44:29;8.63;;;6.95;;
55031;SDS011;40928;51.076;7.950;2023-06-22T11:47:00;11.93;;;7.43;;
55031;SDS011;40928;51.076;7.950;2023-06-22T11:49:28;10.60;;;7.78;;
55031;SDS011;40928;51.076;7.950;2023-06-22T11:51:54;8.98;;;7.82;;
55031;SDS011;40928;51.076;7.950;2023-06-22T11:54:20;9.70;;;6.20;;
55031;SDS011;40928;51.076;7.950;2023-06-22T11:56:45;13.85;;;7.70;;
55031;SDS011;40928;51.076;7.950;2023-06-22T11:59:11;11.82;;;8.25;;
55031;SDS011;40928;51.076;7.950;2023-06-22T12:01:36;14.70;;;9.48;;
55031;SDS011;40928;51.076;7.950;2023-06-22T12:04:02;12.02;;;8.77;;
55031;SDS011;40928;51.076;7.950;2023-06-22T12:06:31;14.80;;;9.07;;
55031;SDS011;40928;51.076;7.950;2023-06-22T12:09:03;13.55;;;9.63;;
55031;SDS011;40928;51.076;7.950;2023-06-22T12:11:30;13.02;;;8.15;;
55031;SDS011;40928;51.076;7.950;2023-06-22T12:13:56;14.90;;;9.40;;
55031;SDS011;40928;51.076;7.950;2023-06-22T12:16:26;10.02;;;8.02;;
55031;SDS011;40928;51.076;7.950;2023-06-22T12:18:53;13.30;;;8.75;;
55031;SDS011;40928;51.076;7.950;2023-06-22T12:21:19;15.90;;;9.32;;
55031;SDS011;40928;51.076;7.950;2023-06-22T12:23:44;11.63;;;8.95;;
55031;SDS011;40928;51.076;7.950;2023-06-22T12:26:10;10.68;;;8.85;;
55031;SDS011;40928;51.076;7.950;2023-06-22T12:28:35;13.88;;;8.85;;
55031;SDS011;40928;51.076;7.950;2023-06-22T12:31:01;11.32;;;7.78;;
55031;SDS011;40928;51.076;7.950;2023-06-22T12:33:27;13.88;;;9.68;;
55031;SDS011;40928;51.076;7.950;2023-06-22T12:35:52;11.95;;;8.65;;
55031;SDS011;40928;51.076;7.950;2023-06-22T12:38:18;21.88;;;10.32;;
55031;SDS011;40928;51.076;7.950;2023-06-22T12:40:43;10.15;;;8.20;;
55031;SDS011;40928;51.076;7.950;2023-06-22T12:43:09;14.70;;;8.68;;
55031;SDS011;40928;51.076;7.950;2023-06-22T12:45:37;17.13;;;8.85;;
55031;SDS011;40928;51.076;7.950;2023-06-22T12:48:04;11.77;;;8.18;;
55031;SDS011;40928;51.076;7.950;2023-06-22T12:50:30;15.32;;;8.35;;
55031;SDS011;40928;51.076;7.950;2023-06-22T12:52:56;18.25;;;8.63;;
55031;SDS011;40928;51.076;7.950;2023-06-22T12:55:21;11.38;;;7.47;;
55031;SDS011;40928;51.076;7.950;2023-06-22T12:57:48;11.55;;;7.43;;
55031;SDS011;40928;51.076;7.950;2023-06-22T13:00:17;12.73;;;9.15;;
55031;SDS011;40928;51.076;7.950;2023-06-22T13:02:42;10.60;;;7.25;;
55031;SDS011;40928;51.076;7.950;2023-06-22T13:05:14;15.45;;;7.95;;
55031;SDS011;40928;51.076;7.950;2023-06-22T13:07:40;11.13;;;9.50;;
55031;SDS011;40928;51.076;7.950;2023-06-22T13:10:07;15.75;;;9.68;;
55031;SDS011;40928;51.076;7.950;2023-06-22T13:12:33;12.85;;;8.82;;
55031;SDS011;40928;51.076;7.950;2023-06-22T13:14:59;13.82;;;8.88;;
55031;SDS011;40928;51.076;7.950;2023-06-22T13:17:25;14.60;;;10.05;;
55031;SDS011;40928;51.076;7.950;2023-06-22T13:19:51;13.48;;;9.15;;
55031;SDS011;40928;51.076;7.950;2023-06-22T13:22:33;11.68;;;8.75;;
55031;SDS011;40928;51.076;7.950;2023-06-22T13:25:05;10.70;;;7.82;;
55031;SDS011;40928;51.076;7.950;2023-06-22T13:27:32;14.43;;;8.80;;
55031;SDS011;40928;51.076;7.950;2023-06-22T13:29:58;11.50;;;8.85;;
55031;SDS011;40928;51.076;7.950;2023-06-22T13:32:24;10.07;;;8.48;;
55031;SDS011;40928;51.076;7.950;2023-06-22T13:34:50;10.35;;;8.15;;
55031;SDS011;40928;51.076;7.950;2023-06-22T13:39:53;12.45;;;9.80;;
55031;SDS011;40928;51.076;7.950;2023-06-22T13:42:21;10.93;;;8.93;;
55031;SDS011;40928;51.076;7.950;2023-06-22T13:44:46;13.75;;;8.68;;
55031;SDS011;40928;51.076;7.950;2023-06-22T13:47:12;13.77;;;8.57;;
55031;SDS011;40928;51.076;7.950;2023-06-22T13:49:37;10.00;;;7.13;;
55031;SDS011;40928;51.076;7.950;2023-06-22T13:52:04;9.30;;;7.28;;
55031;SDS011;40928;51.076;7.950;2023-06-22T13:54:31;9.25;;;6.93;;
55031;SDS011;40928;51.076;7.950;2023-06-22T13:56:58;11.05;;;7.68;;
55031;SDS011;40928;51.076;7.950;2023-06-22T13:59:23;9.48;;;7.93;;
55031;SDS011;40928;51.076;7.950;2023-06-22T14:01:51;12.93;;;8.38;;
55031;SDS011;40928;51.076;7.950;2023-06-22T14:04:21;11.52;;;8.52;;
55031;SDS011;40928;51.076;7.950;2023-06-22T14:06:52;10.55;;;7.80;;
55031;SDS011;40928;51.076;7.950;2023-06-22T14:09:18;10.27;;;8.15;;
55031;SDS011;40928;51.076;7.950;2023-06-22T14:11:43;11.10;;;7.78;;
55031;SDS011;40928;51.076;7.950;2023-06-22T14:14:10;8.30;;;7.40;;
55031;SDS011;40928;51.076;7.950;2023-06-22T14:16:51;10.32;;;7.50;;
55031;SDS011;40928;51.076;7.950;2023-06-22T14:19:17;9.23;;;7.35;;
55031;SDS011;40928;51.076;7.950;2023-06-22T14:21:44;11.52;;;8.23;;
55031;SDS011;40928;51.076;7.950;2023-06-22T14:24:13;9.27;;;7.90;;
55031;SDS011;40928;51.076;7.950;2023-06-22T14:26:38;10.45;;;7.55;;
55031;SDS011;40928;51.076;7.950;2023-06-22T14:29:04;10.70;;;8.55;;
55031;SDS011;40928;51.076;7.950;2023-06-22T14:31:30;11.15;;;8.05;;
55031;SDS011;40928;51.076;7.950;2023-06-22T14:33:56;11.95;;;8.38;;
55031;SDS011;40928;51.076;7.950;2023-06-22T14:36:22;10.90;;;8.38;;
55031;SDS011;40928;51.076;7.950;2023-06-22T14:38:49;12.32;;;8.43;;
55031;SDS011;40928;51.076;7.950;2023-06-22T14:41:15;10.48;;;8.45;;
55031;SDS011;40928;51.076;7.950;2023-06-22T14:43:46;11.38;;;8.73;;
55031;SDS011;40928;51.076;7.950;2023-06-22T14:46:28;13.27;;;8.55;;
55031;SDS011;40928;51.076;7.950;2023-06-22T14:48:55;10.95;;;8.73;;
55031;SDS011;40928;51.076;7.950;2023-06-22T14:51:25;12.07;;;9.52;;